sensor_id;sensor_type;location;lat;lon;timestamp;P1;durP1;ratioP1;P2;durP2;ratioP2
77854;SDS011;67046;50.088;14.336;2023-03-19T00:00:00;36.90;;;23.10;;
77854;SDS011;67046;50.088;14.336;2023-03-19T00:00:32;35.20;;;24.00;;
77854;SDS011;67046;50.088;14.336;2023-03-19T00:01:24;35.70;;;23.00;;
77854;SDS011;67046;50.088;14.336;2023-03-19T00:01:55;33.80;;;22.70;;
77854;SDS011;67046;50.088;14.336;2023-03-19T00:02:27;35.80;;;22.00;;
77854;SDS011;67046;50.088;14.336;2023-03-19T00:02:58;34.30;;;23.10;;
77854;SDS011;67046;50.088;14.336;2023-03-19T00:03:30;35.20;;;24.60;;
77854;SDS011;67046;50.088;14.336;2023-03-19T00:04:01;34.20;;;23.80;;
77854;SDS011;67046;50.088;14.336;2023-03-19T00:04:32;35.50;;;24.80;;
77854;SDS011;67046;50.088;14.336;2023-03-19T00:05:04;37.80;;;24.60;;
77854;SDS011;67046;50.088;14.336;2023-03-19T00:05:36;34.90;;;23.90;;
77854;SDS011;67046;50.088;14.336;2023-03-19T00:06:07;34.10;;;23.40;;
77854;SDS011;67046;50.088;14.336;2023-03-19T00:06:38;32.20;;;22.60;;
77854;SDS011;67046;50.088;14.336;2023-03-19T00:07:09;38.30;;;25.30;;
77854;SDS011;67046;50.088;14.336;2023-03-19T00:07:41;33.90;;;24.70;;
77854;SDS011;67046;50.088;14.336;2023-03-19T00:08:12;36.30;;;24.20;;
77854;SDS011;67046;50.088;14.336;2023-03-19T00:08:43;36.10;;;24.80;;
77854;SDS011;67046;50.088;14.336;2023-03-19T00:09:14;37.60;;;24.00;;
77854;SDS011;67046;50.088;14.336;2023-03-19T00:09:46;37.10;;;24.70;;
77854;SDS011;67046;50.088;14.336;2023-03-19T00:10:18;33.80;;;23.00;;
77854;SDS011;67046;50.088;14.336;2023-03-19T00:10:49;33.70;;;23.20;;
77854;SDS011;67046;50.088;14.336;2023-03-19T00:11:20;36.00;;;23.20;;
77854;SDS011;67046;50.088;14.336;2023-03-19T00:11:54;35.70;;;23.90;;
77854;SDS011;67046;50.088;14.336;2023-03-19T00:12:26;33.40;;;24.00;;
77854;SDS011;67046;50.088;14.336;2023-03-19T00:12:57;37.00;;;24.20;;
77854;SDS011;67046;50.088;14.336;2023-03-19T00:13:29;34.00;;;24.60;;
77854;SDS011;67046;50.088;14.336;2023-03-19T00:14:00;34.00;;;24.00;;
77854;SDS011;67046;50.088;14.336;2023-03-19T00:14:31;34.80;;;24.40;;
77854;SDS011;67046;50.088;14.336;2023-03-19T00:15:03;34.20;;;23.70;;
77854;SDS011;67046;50.088;14.336;2023-03-19T00:15:34;37.00;;;24.00;;
77854;SDS011;67046;50.088;14.336;2023-03-19T00:16:06;36.70;;;24.80;;
77854;SDS011;67046;50.088;14.336;2023-03-19T00:16:38;35.10;;;23.00;;
77854;SDS011;67046;50.088;14.336;2023-03-19T00:17:09;38.40;;;24.20;;
77854;SDS011;67046;50.088;14.336;2023-03-19T00:17:41;35.60;;;24.70;;
77854;SDS011;67046;50.088;14.336;2023-03-19T00:18:12;41.00;;;24.40;;
77854;SDS011;67046;50.088;14.336;2023-03-19T00:18:44;37.30;;;25.10;;
77854;SDS011;67046;50.088;14.336;2023-03-19T00:19:16;36.20;;;25.50;;
77854;SDS011;67046;50.088;14.336;2023-03-19T00:19:47;34.90;;;25.20;;
77854;SDS011;67046;50.088;14.336;2023-03-19T00:20:18;41.70;;;25.90;;
77854;SDS011;67046;50.088;14.336;2023-03-19T00:20:51;33.40;;;24.20;;
77854;SDS011;67046;50.088;14.336;2023-03-19T00:21:23;33.60;;;23.90;;
77854;SDS011;67046;50.088;14.336;2023-03-19T00:21:54;35.20;;;23.80;;
77854;SDS011;67046;50.088;14.336;2023-03-19T00:22:26;33.30;;;23.60;;
77854;SDS011;67046;50.088;14.336;2023-03-19T00:22:58;36.50;;;25.70;;
77854;SDS011;67046;50.088;14.336;2023-03-19T00:23:29;36.20;;;24.60;;
77854;SDS011;67046;50.088;14.336;2023-03-19T00:24:01;37.40;;;24.20;;
77854;SDS011;67046;50.088;14.336;2023-03-19T00:24:33;38.00;;;24.30;;
77854;SDS011;67046;50.088;14.336;2023-03-19T00:25:05;37.50;;;25.20;;
77854;SDS011;67046;50.088;14.336;2023-03-19T00:25:37;39.70;;;24.50;;
77854;SDS011;67046;50.088;14.336;2023-03-19T00:26:09;39.50;;;25.80;;
77854;SDS011;67046;50.088;14.336;2023-03-19T00:26:41;37.00;;;26.10;;
77854;SDS011;67046;50.088;14.336;2023-03-19T00:27:13;34.40;;;25.00;;
77854;SDS011;67046;50.088;14.336;2023-03-19T00:27:44;37.60;;;25.50;;
77854;SDS011;67046;50.088;14.336;2023-03-19T00:28:16;36.30;;;24.70;;
77854;SDS011;67046;50.088;14.336;2023-03-19T00:28:48;37.50;;;25.00;;
77854;SDS011;67046;50.088;14.336;2023-03-19T00:29:19;35.80;;;25.20;;
77854;SDS011;67046;50.088;14.336;2023-03-19T00:29:50;37.30;;;25.40;;
77854;SDS011;67046;50.088;14.336;2023-03-19T00:30:22;39.70;;;25.40;;
77854;SDS011;67046;50.088;14.336;2023-03-19T00:30:53;39.70;;;24.70;;
77854;SDS011;67046;50.088;14.336;2023-03-19T00:31:25;38.80;;;25.10;;
77854;SDS011;67046;50.088;14.336;2023-03-19T00:31:58;36.60;;;24.10;;
77854;SDS011;67046;50.088;14.336;2023-03-19T00:32:29;35.90;;;25.00;;
77854;SDS011;67046;50.088;14.336;2023-03-19T00:33:00;33.40;;;24.40;;
77854;SDS011;67046;50.088;14.336;2023-03-19T00:33:32;35.70;;;23.40;;
77854;SDS011;67046;50.088;14.336;2023-03-19T00:34:03;38.80;;;26.80;;
77854;SDS011;67046;50.088;14.336;2023-03-19T00:34:35;37.80;;;26.10;;
77854;SDS011;67046;50.088;14.336;2023-03-19T00:35:06;35.70;;;24.20;;
77854;SDS011;67046;50.088;14.336;2023-03-19T00:35:38;41.50;;;24.90;;
77854;SDS011;67046;50.088;14.336;2023-03-19T00:36:10;36.90;;;24.60;;
77854;SDS011;67046;50.088;14.336;2023-03-19T00:37:13;35.80;;;23.30;;
77854;SDS011;67046;50.088;14.336;2023-03-19T00:37:46;37.60;;;24.60;;
77854;SDS011;67046;50.088;14.336;2023-03-19T00:38:17;39.40;;;24.30;;
77854;SDS011;67046;50.088;14.336;2023-03-19T00:38:48;35.80;;;25.40;;
77854;SDS011;67046;50.088;14.336;2023-03-19T00:39:20;39.20;;;25.00;;
77854;SDS011;67046;50.088;14.336;2023-03-19T00:39:51;36.20;;;25.20;;
77854;SDS011;67046;50.088;14.336;2023-03-19T00:40:22;34.00;;;24.20;;
77854;SDS011;67046;50.088;14.336;2023-03-19T00:40:54;39.50;;;24.70;;
77854;SDS011;67046;50.088;14.336;2023-03-19T00:41:25;37.70;;;23.50;;
77854;SDS011;67046;50.088;14.336;2023-03-19T00:41:57;35.60;;;25.90;;
77854;SDS011;67046;50.088;14.336;2023-03-19T00:42:28;37.30;;;25.90;;
77854;SDS011;67046;50.088;14.336;2023-03-19T00:43:00;35.80;;;24.70;;
77854;SDS011;67046;50.088;14.336;2023-03-19T00:43:31;32.70;;;24.30;;
77854;SDS011;67046;50.088;14.336;2023-03-19T00:44:03;33.90;;;24.00;;
77854;SDS011;67046;50.088;14.336;2023-03-19T00:44:35;35.80;;;23.30;;
77854;SDS011;67046;50.088;14.336;2023-03-19T00:45:07;39.30;;;25.30;;
77854;SDS011;67046;50.088;14.336;2023-03-19T00:45:39;34.80;;;23.60;;
77854;SDS011;67046;50.088;14.336;2023-03-19T00:46:11;33.20;;;24.10;;
77854;SDS011;67046;50.088;14.336;2023-03-19T00:46:43;35.90;;;24.50;;
77854;SDS011;67046;50.088;14.336;2023-03-19T00:47:15;33.50;;;24.50;;
77854;SDS011;67046;50.088;14.336;2023-03-19T00:47:47;35.60;;;22.60;;
77854;SDS011;67046;50.088;14.336;2023-03-19T00:48:18;38.10;;;24.70;;
77854;SDS011;67046;50.088;14.336;2023-03-19T00:48:51;36.90;;;24.40;;
77854;SDS011;67046;50.088;14.336;2023-03-19T00:49:25;35.70;;;24.30;;
77854;SDS011;67046;50.088;14.336;2023-03-19T00:49:56;36.60;;;24.00;;
77854;SDS011;67046;50.088;14.336;2023-03-19T00:50:27;35.90;;;25.00;;
77854;SDS011;67046;50.088;14.336;2023-03-19T00:51:02;37.40;;;24.80;;
77854;SDS011;67046;50.088;14.336;2023-03-19T00:51:35;35.40;;;24.90;;
77854;SDS011;67046;50.088;14.336;2023-03-19T00:52:07;34.90;;;24.90;;
77854;SDS011;67046;50.088;14.336;2023-03-19T00:52:38;32.50;;;23.30;;
77854;SDS011;67046;50.088;14.336;2023-03-19T00:53:09;34.10;;;23.10;;
77854;SDS011;67046;50.088;14.336;2023-03-19T00:53:41;34.80;;;24.00;;
77854;SDS011;67046;50.088;14.336;2023-03-19T00:54:13;33.00;;;24.00;;
77854;SDS011;67046;50.088;14.336;2023-03-19T00:54:45;41.40;;;23.30;;
77854;SDS011;67046;50.088;14.336;2023-03-19T00:55:16;37.00;;;24.40;;
77854;SDS011;67046;50.088;14.336;2023-03-19T00:55:48;35.30;;;24.70;;
77854;SDS011;67046;50.088;14.336;2023-03-19T00:56:19;34.30;;;23.40;;
77854;SDS011;67046;50.088;14.336;2023-03-19T00:56:50;35.30;;;24.10;;
77854;SDS011;67046;50.088;14.336;2023-03-19T00:57:22;31.60;;;22.70;;
77854;SDS011;67046;50.088;14.336;2023-03-19T00:57:53;37.80;;;26.30;;
77854;SDS011;67046;50.088;14.336;2023-03-19T00:58:24;35.50;;;25.00;;
77854;SDS011;67046;50.088;14.336;2023-03-19T00:58:56;37.40;;;25.30;;
77854;SDS011;67046;50.088;14.336;2023-03-19T00:59:27;34.00;;;24.30;;
77854;SDS011;67046;50.088;14.336;2023-03-19T00:59:58;32.80;;;23.70;;
77854;SDS011;67046;50.088;14.336;2023-03-19T01:00:30;39.70;;;25.70;;
77854;SDS011;67046;50.088;14.336;2023-03-19T01:01:03;35.70;;;24.40;;
77854;SDS011;67046;50.088;14.336;2023-03-19T01:02:06;33.70;;;22.80;;
77854;SDS011;67046;50.088;14.336;2023-03-19T01:02:37;37.00;;;23.90;;
77854;SDS011;67046;50.088;14.336;2023-03-19T01:03:08;38.30;;;24.40;;
77854;SDS011;67046;50.088;14.336;2023-03-19T01:03:40;38.00;;;25.20;;
77854;SDS011;67046;50.088;14.336;2023-03-19T01:04:11;39.40;;;25.40;;
77854;SDS011;67046;50.088;14.336;2023-03-19T01:04:42;34.80;;;23.50;;
77854;SDS011;67046;50.088;14.336;2023-03-19T01:05:14;36.20;;;24.80;;
77854;SDS011;67046;50.088;14.336;2023-03-19T01:05:46;36.50;;;25.10;;
77854;SDS011;67046;50.088;14.336;2023-03-19T01:06:19;38.80;;;25.00;;
77854;SDS011;67046;50.088;14.336;2023-03-19T01:06:50;34.30;;;24.20;;
77854;SDS011;67046;50.088;14.336;2023-03-19T01:07:22;38.00;;;25.30;;
77854;SDS011;67046;50.088;14.336;2023-03-19T01:07:54;37.50;;;25.90;;
77854;SDS011;67046;50.088;14.336;2023-03-19T01:08:57;31.40;;;21.20;;
77854;SDS011;67046;50.088;14.336;2023-03-19T01:09:29;35.90;;;23.50;;
77854;SDS011;67046;50.088;14.336;2023-03-19T01:10:00;34.60;;;22.80;;
77854;SDS011;67046;50.088;14.336;2023-03-19T01:10:31;35.60;;;24.70;;
77854;SDS011;67046;50.088;14.336;2023-03-19T01:11:13;38.10;;;23.80;;
77854;SDS011;67046;50.088;14.336;2023-03-19T01:11:46;34.60;;;22.60;;
77854;SDS011;67046;50.088;14.336;2023-03-19T01:12:18;34.30;;;23.10;;
77854;SDS011;67046;50.088;14.336;2023-03-19T01:12:49;31.60;;;22.50;;
77854;SDS011;67046;50.088;14.336;2023-03-19T01:13:21;37.50;;;23.80;;
77854;SDS011;67046;50.088;14.336;2023-03-19T01:13:53;34.20;;;23.90;;
77854;SDS011;67046;50.088;14.336;2023-03-19T01:14:24;31.90;;;23.70;;
77854;SDS011;67046;50.088;14.336;2023-03-19T01:14:56;33.90;;;23.40;;
77854;SDS011;67046;50.088;14.336;2023-03-19T01:15:27;35.30;;;24.40;;
77854;SDS011;67046;50.088;14.336;2023-03-19T01:15:58;34.80;;;24.10;;
77854;SDS011;67046;50.088;14.336;2023-03-19T01:16:29;33.60;;;23.90;;
77854;SDS011;67046;50.088;14.336;2023-03-19T01:17:01;33.60;;;24.30;;
77854;SDS011;67046;50.088;14.336;2023-03-19T01:17:32;33.00;;;24.40;;
77854;SDS011;67046;50.088;14.336;2023-03-19T01:18:04;35.70;;;23.70;;
77854;SDS011;67046;50.088;14.336;2023-03-19T01:18:36;36.70;;;24.50;;
77854;SDS011;67046;50.088;14.336;2023-03-19T01:19:07;38.70;;;24.30;;
77854;SDS011;67046;50.088;14.336;2023-03-19T01:19:38;34.30;;;23.40;;
77854;SDS011;67046;50.088;14.336;2023-03-19T01:20:10;33.90;;;23.50;;
77854;SDS011;67046;50.088;14.336;2023-03-19T01:20:48;37.70;;;24.90;;
77854;SDS011;67046;50.088;14.336;2023-03-19T01:21:19;32.60;;;24.50;;
77854;SDS011;67046;50.088;14.336;2023-03-19T01:21:51;33.50;;;23.20;;
77854;SDS011;67046;50.088;14.336;2023-03-19T01:22:22;33.80;;;23.90;;
77854;SDS011;67046;50.088;14.336;2023-03-19T01:22:54;35.40;;;22.70;;
77854;SDS011;67046;50.088;14.336;2023-03-19T01:23:25;33.90;;;24.50;;
77854;SDS011;67046;50.088;14.336;2023-03-19T01:23:57;34.60;;;25.40;;
77854;SDS011;67046;50.088;14.336;2023-03-19T01:24:29;34.60;;;24.20;;
77854;SDS011;67046;50.088;14.336;2023-03-19T01:25:01;38.60;;;24.40;;
77854;SDS011;67046;50.088;14.336;2023-03-19T01:25:34;36.80;;;24.90;;
77854;SDS011;67046;50.088;14.336;2023-03-19T01:26:06;35.40;;;24.00;;
77854;SDS011;67046;50.088;14.336;2023-03-19T01:26:38;34.90;;;24.30;;
77854;SDS011;67046;50.088;14.336;2023-03-19T01:27:09;36.60;;;24.70;;
77854;SDS011;67046;50.088;14.336;2023-03-19T01:27:41;33.70;;;23.80;;
77854;SDS011;67046;50.088;14.336;2023-03-19T01:28:12;36.00;;;23.20;;
77854;SDS011;67046;50.088;14.336;2023-03-19T01:28:43;37.90;;;24.80;;
77854;SDS011;67046;50.088;14.336;2023-03-19T01:29:15;35.00;;;25.20;;
77854;SDS011;67046;50.088;14.336;2023-03-19T01:29:46;41.10;;;26.60;;
77854;SDS011;67046;50.088;14.336;2023-03-19T01:30:17;38.40;;;24.40;;
77854;SDS011;67046;50.088;14.336;2023-03-19T01:30:49;35.80;;;25.00;;
77854;SDS011;67046;50.088;14.336;2023-03-19T01:31:20;35.50;;;24.00;;
77854;SDS011;67046;50.088;14.336;2023-03-19T01:31:52;35.10;;;25.20;;
77854;SDS011;67046;50.088;14.336;2023-03-19T01:32:23;39.40;;;24.90;;
77854;SDS011;67046;50.088;14.336;2023-03-19T01:32:55;38.00;;;26.10;;
77854;SDS011;67046;50.088;14.336;2023-03-19T01:33:26;36.50;;;23.80;;
77854;SDS011;67046;50.088;14.336;2023-03-19T01:33:57;38.80;;;25.60;;
77854;SDS011;67046;50.088;14.336;2023-03-19T01:34:29;36.20;;;24.70;;
77854;SDS011;67046;50.088;14.336;2023-03-19T01:35:00;34.50;;;24.70;;
77854;SDS011;67046;50.088;14.336;2023-03-19T01:35:31;37.10;;;25.50;;
77854;SDS011;67046;50.088;14.336;2023-03-19T01:36:03;38.00;;;25.40;;
77854;SDS011;67046;50.088;14.336;2023-03-19T01:36:35;38.50;;;25.80;;
77854;SDS011;67046;50.088;14.336;2023-03-19T01:37:06;35.40;;;25.10;;
77854;SDS011;67046;50.088;14.336;2023-03-19T01:37:38;33.50;;;23.80;;
77854;SDS011;67046;50.088;14.336;2023-03-19T01:38:09;41.00;;;25.60;;
77854;SDS011;67046;50.088;14.336;2023-03-19T01:38:40;36.30;;;24.20;;
77854;SDS011;67046;50.088;14.336;2023-03-19T01:39:12;38.00;;;26.20;;
77854;SDS011;67046;50.088;14.336;2023-03-19T01:39:43;36.10;;;25.40;;
77854;SDS011;67046;50.088;14.336;2023-03-19T01:40:15;38.70;;;25.50;;
77854;SDS011;67046;50.088;14.336;2023-03-19T01:40:47;36.30;;;24.90;;
77854;SDS011;67046;50.088;14.336;2023-03-19T01:41:19;35.90;;;24.60;;
77854;SDS011;67046;50.088;14.336;2023-03-19T01:41:50;38.30;;;25.90;;
77854;SDS011;67046;50.088;14.336;2023-03-19T01:42:22;36.90;;;24.60;;
77854;SDS011;67046;50.088;14.336;2023-03-19T01:42:54;35.00;;;25.00;;
77854;SDS011;67046;50.088;14.336;2023-03-19T01:43:29;36.40;;;24.80;;
77854;SDS011;67046;50.088;14.336;2023-03-19T01:44:02;34.20;;;24.90;;
77854;SDS011;67046;50.088;14.336;2023-03-19T01:44:34;36.70;;;24.40;;
77854;SDS011;67046;50.088;14.336;2023-03-19T01:45:29;35.10;;;24.00;;
77854;SDS011;67046;50.088;14.336;2023-03-19T01:46:06;36.10;;;23.70;;
77854;SDS011;67046;50.088;14.336;2023-03-19T01:46:44;35.40;;;24.70;;
77854;SDS011;67046;50.088;14.336;2023-03-19T01:47:17;35.50;;;24.50;;
77854;SDS011;67046;50.088;14.336;2023-03-19T01:47:58;35.60;;;23.30;;
77854;SDS011;67046;50.088;14.336;2023-03-19T01:48:43;40.40;;;25.10;;
77854;SDS011;67046;50.088;14.336;2023-03-19T01:49:18;35.00;;;24.50;;
77854;SDS011;67046;50.088;14.336;2023-03-19T01:49:52;33.80;;;24.10;;
77854;SDS011;67046;50.088;14.336;2023-03-19T01:50:33;36.70;;;24.50;;
77854;SDS011;67046;50.088;14.336;2023-03-19T01:51:12;37.80;;;24.40;;
77854;SDS011;67046;50.088;14.336;2023-03-19T01:51:46;35.90;;;25.10;;
77854;SDS011;67046;50.088;14.336;2023-03-19T01:52:18;34.30;;;24.50;;
77854;SDS011;67046;50.088;14.336;2023-03-19T01:52:51;37.10;;;25.50;;
77854;SDS011;67046;50.088;14.336;2023-03-19T01:53:24;35.70;;;24.60;;
77854;SDS011;67046;50.088;14.336;2023-03-19T01:53:58;36.60;;;24.70;;
77854;SDS011;67046;50.088;14.336;2023-03-19T01:54:32;38.60;;;25.20;;
77854;SDS011;67046;50.088;14.336;2023-03-19T01:55:04;34.60;;;23.00;;
77854;SDS011;67046;50.088;14.336;2023-03-19T01:55:37;36.10;;;24.80;;
77854;SDS011;67046;50.088;14.336;2023-03-19T01:56:11;34.60;;;23.70;;
77854;SDS011;67046;50.088;14.336;2023-03-19T01:56:52;35.50;;;22.50;;
77854;SDS011;67046;50.088;14.336;2023-03-19T01:57:28;37.00;;;23.00;;
77854;SDS011;67046;50.088;14.336;2023-03-19T01:58:01;33.60;;;24.20;;
77854;SDS011;67046;50.088;14.336;2023-03-19T01:58:37;34.10;;;23.40;;
77854;SDS011;67046;50.088;14.336;2023-03-19T01:59:11;35.40;;;23.80;;
77854;SDS011;67046;50.088;14.336;2023-03-19T01:59:53;34.90;;;23.40;;
77854;SDS011;67046;50.088;14.336;2023-03-19T02:00:28;34.20;;;23.40;;
77854;SDS011;67046;50.088;14.336;2023-03-19T02:01:00;33.40;;;24.90;;
77854;SDS011;67046;50.088;14.336;2023-03-19T02:01:33;36.50;;;24.30;;
77854;SDS011;67046;50.088;14.336;2023-03-19T02:02:21;34.20;;;23.50;;
77854;SDS011;67046;50.088;14.336;2023-03-19T02:02:57;35.70;;;23.30;;
77854;SDS011;67046;50.088;14.336;2023-03-19T02:03:32;36.60;;;23.70;;
77854;SDS011;67046;50.088;14.336;2023-03-19T02:04:03;31.90;;;23.70;;
77854;SDS011;67046;50.088;14.336;2023-03-19T02:04:37;34.90;;;24.20;;
77854;SDS011;67046;50.088;14.336;2023-03-19T02:05:11;34.90;;;23.60;;
77854;SDS011;67046;50.088;14.336;2023-03-19T02:05:45;36.60;;;24.20;;
77854;SDS011;67046;50.088;14.336;2023-03-19T02:06:19;36.00;;;24.20;;
77854;SDS011;67046;50.088;14.336;2023-03-19T02:06:52;33.80;;;23.80;;
77854;SDS011;67046;50.088;14.336;2023-03-19T02:07:26;32.80;;;23.10;;
77854;SDS011;67046;50.088;14.336;2023-03-19T02:08:02;39.60;;;24.60;;
77854;SDS011;67046;50.088;14.336;2023-03-19T02:08:36;38.00;;;25.30;;
77854;SDS011;67046;50.088;14.336;2023-03-19T02:09:08;35.70;;;25.20;;
77854;SDS011;67046;50.088;14.336;2023-03-19T02:09:40;38.60;;;25.60;;
77854;SDS011;67046;50.088;14.336;2023-03-19T02:10:12;34.10;;;24.30;;
77854;SDS011;67046;50.088;14.336;2023-03-19T02:10:46;36.60;;;24.00;;
77854;SDS011;67046;50.088;14.336;2023-03-19T02:11:18;35.70;;;24.60;;
77854;SDS011;67046;50.088;14.336;2023-03-19T02:11:50;36.40;;;25.60;;
77854;SDS011;67046;50.088;14.336;2023-03-19T02:12:23;35.80;;;25.30;;
77854;SDS011;67046;50.088;14.336;2023-03-19T02:12:54;38.70;;;24.30;;
77854;SDS011;67046;50.088;14.336;2023-03-19T02:13:26;35.50;;;23.40;;
77854;SDS011;67046;50.088;14.336;2023-03-19T02:13:58;32.20;;;23.50;;
77854;SDS011;67046;50.088;14.336;2023-03-19T02:14:29;36.60;;;25.90;;
77854;SDS011;67046;50.088;14.336;2023-03-19T02:15:01;36.40;;;24.80;;
77854;SDS011;67046;50.088;14.336;2023-03-19T02:15:32;36.10;;;24.40;;
77854;SDS011;67046;50.088;14.336;2023-03-19T02:16:04;35.70;;;24.50;;
77854;SDS011;67046;50.088;14.336;2023-03-19T02:16:36;37.60;;;26.30;;
77854;SDS011;67046;50.088;14.336;2023-03-19T02:17:08;32.40;;;24.20;;
77854;SDS011;67046;50.088;14.336;2023-03-19T02:17:40;36.70;;;25.40;;
77854;SDS011;67046;50.088;14.336;2023-03-19T02:18:12;33.50;;;24.00;;
77854;SDS011;67046;50.088;14.336;2023-03-19T02:18:44;37.40;;;24.70;;
77854;SDS011;67046;50.088;14.336;2023-03-19T02:19:18;38.80;;;25.60;;
77854;SDS011;67046;50.088;14.336;2023-03-19T02:21:32;35.30;;;23.30;;
77854;SDS011;67046;50.088;14.336;2023-03-19T02:22:03;40.40;;;25.90;;
77854;SDS011;67046;50.088;14.336;2023-03-19T02:22:36;39.50;;;25.10;;
77854;SDS011;67046;50.088;14.336;2023-03-19T02:23:36;37.40;;;24.90;;
77854;SDS011;67046;50.088;14.336;2023-03-19T02:24:32;36.70;;;22.90;;
77854;SDS011;67046;50.088;14.336;2023-03-19T02:25:20;41.20;;;23.90;;
77854;SDS011;67046;50.088;14.336;2023-03-19T02:26:07;35.00;;;22.30;;
77854;SDS011;67046;50.088;14.336;2023-03-19T02:26:41;35.40;;;23.30;;
77854;SDS011;67046;50.088;14.336;2023-03-19T02:27:14;35.70;;;24.20;;
77854;SDS011;67046;50.088;14.336;2023-03-19T02:27:46;36.30;;;24.30;;
77854;SDS011;67046;50.088;14.336;2023-03-19T02:28:18;35.10;;;24.40;;
77854;SDS011;67046;50.088;14.336;2023-03-19T02:28:52;35.50;;;23.70;;
77854;SDS011;67046;50.088;14.336;2023-03-19T02:29:23;43.40;;;26.00;;
77854;SDS011;67046;50.088;14.336;2023-03-19T02:29:55;33.10;;;24.90;;
77854;SDS011;67046;50.088;14.336;2023-03-19T02:30:30;33.80;;;24.10;;
77854;SDS011;67046;50.088;14.336;2023-03-19T02:31:03;36.50;;;24.30;;
77854;SDS011;67046;50.088;14.336;2023-03-19T02:31:35;38.30;;;25.20;;
77854;SDS011;67046;50.088;14.336;2023-03-19T02:32:07;37.50;;;24.40;;
77854;SDS011;67046;50.088;14.336;2023-03-19T02:32:39;38.60;;;25.90;;
77854;SDS011;67046;50.088;14.336;2023-03-19T02:33:13;37.50;;;26.20;;
77854;SDS011;67046;50.088;14.336;2023-03-19T02:34:57;39.30;;;25.00;;
77854;SDS011;67046;50.088;14.336;2023-03-19T02:35:30;35.50;;;24.30;;
77854;SDS011;67046;50.088;14.336;2023-03-19T02:36:04;36.00;;;25.00;;
77854;SDS011;67046;50.088;14.336;2023-03-19T02:36:43;37.70;;;23.80;;
77854;SDS011;67046;50.088;14.336;2023-03-19T02:37:54;38.40;;;24.60;;
77854;SDS011;67046;50.088;14.336;2023-03-19T02:38:26;36.40;;;24.00;;
77854;SDS011;67046;50.088;14.336;2023-03-19T02:39:00;36.70;;;24.50;;
77854;SDS011;67046;50.088;14.336;2023-03-19T02:39:40;39.50;;;24.70;;
77854;SDS011;67046;50.088;14.336;2023-03-19T02:40:29;36.20;;;23.00;;
77854;SDS011;67046;50.088;14.336;2023-03-19T02:41:06;38.60;;;23.60;;
77854;SDS011;67046;50.088;14.336;2023-03-19T02:41:39;38.20;;;24.30;;
77854;SDS011;67046;50.088;14.336;2023-03-19T02:42:12;40.90;;;24.90;;
77854;SDS011;67046;50.088;14.336;2023-03-19T02:42:45;37.50;;;25.70;;
77854;SDS011;67046;50.088;14.336;2023-03-19T02:43:16;39.60;;;25.80;;
77854;SDS011;67046;50.088;14.336;2023-03-19T02:43:49;36.90;;;25.40;;
77854;SDS011;67046;50.088;14.336;2023-03-19T02:44:52;37.70;;;23.80;;
77854;SDS011;67046;50.088;14.336;2023-03-19T02:45:27;36.80;;;24.50;;
77854;SDS011;67046;50.088;14.336;2023-03-19T02:46:00;39.60;;;26.30;;
77854;SDS011;67046;50.088;14.336;2023-03-19T02:46:33;39.70;;;24.90;;
77854;SDS011;67046;50.088;14.336;2023-03-19T02:47:04;36.40;;;24.70;;
77854;SDS011;67046;50.088;14.336;2023-03-19T02:47:36;38.60;;;25.90;;
77854;SDS011;67046;50.088;14.336;2023-03-19T02:48:07;38.40;;;26.70;;
77854;SDS011;67046;50.088;14.336;2023-03-19T02:48:38;37.00;;;26.50;;
77854;SDS011;67046;50.088;14.336;2023-03-19T02:49:11;39.10;;;26.30;;
77854;SDS011;67046;50.088;14.336;2023-03-19T02:49:43;42.40;;;27.90;;
77854;SDS011;67046;50.088;14.336;2023-03-19T02:50:14;41.00;;;28.10;;
77854;SDS011;67046;50.088;14.336;2023-03-19T02:50:46;38.30;;;27.70;;
77854;SDS011;67046;50.088;14.336;2023-03-19T02:51:17;42.50;;;28.40;;
77854;SDS011;67046;50.088;14.336;2023-03-19T02:51:49;39.70;;;27.90;;
77854;SDS011;67046;50.088;14.336;2023-03-19T02:52:21;39.90;;;28.70;;
77854;SDS011;67046;50.088;14.336;2023-03-19T02:52:52;39.30;;;27.10;;
77854;SDS011;67046;50.088;14.336;2023-03-19T02:53:24;42.70;;;28.10;;
77854;SDS011;67046;50.088;14.336;2023-03-19T02:53:55;40.50;;;28.40;;
77854;SDS011;67046;50.088;14.336;2023-03-19T02:54:27;38.70;;;27.20;;
77854;SDS011;67046;50.088;14.336;2023-03-19T02:54:58;42.20;;;29.10;;
77854;SDS011;67046;50.088;14.336;2023-03-19T02:55:30;37.90;;;27.30;;
77854;SDS011;67046;50.088;14.336;2023-03-19T02:56:01;41.50;;;27.50;;
77854;SDS011;67046;50.088;14.336;2023-03-19T02:56:33;43.30;;;28.30;;
77854;SDS011;67046;50.088;14.336;2023-03-19T02:57:05;41.90;;;27.80;;
77854;SDS011;67046;50.088;14.336;2023-03-19T02:57:36;45.50;;;27.90;;
77854;SDS011;67046;50.088;14.336;2023-03-19T02:58:08;41.30;;;28.80;;
77854;SDS011;67046;50.088;14.336;2023-03-19T02:58:40;42.20;;;27.90;;
77854;SDS011;67046;50.088;14.336;2023-03-19T02:59:11;41.80;;;28.60;;
77854;SDS011;67046;50.088;14.336;2023-03-19T02:59:43;41.90;;;27.70;;
77854;SDS011;67046;50.088;14.336;2023-03-19T03:00:14;39.40;;;26.90;;
77854;SDS011;67046;50.088;14.336;2023-03-19T03:00:50;42.00;;;28.40;;
77854;SDS011;67046;50.088;14.336;2023-03-19T03:01:22;38.20;;;26.80;;
77854;SDS011;67046;50.088;14.336;2023-03-19T03:01:54;39.60;;;28.30;;
77854;SDS011;67046;50.088;14.336;2023-03-19T03:02:25;45.90;;;28.80;;
77854;SDS011;67046;50.088;14.336;2023-03-19T03:02:57;40.60;;;28.40;;
77854;SDS011;67046;50.088;14.336;2023-03-19T03:03:28;42.20;;;28.10;;
77854;SDS011;67046;50.088;14.336;2023-03-19T03:04:00;39.60;;;29.80;;
77854;SDS011;67046;50.088;14.336;2023-03-19T03:04:31;39.70;;;27.60;;
77854;SDS011;67046;50.088;14.336;2023-03-19T03:05:05;38.10;;;26.50;;
77854;SDS011;67046;50.088;14.336;2023-03-19T03:05:36;39.50;;;27.00;;
77854;SDS011;67046;50.088;14.336;2023-03-19T03:06:08;40.70;;;27.30;;
77854;SDS011;67046;50.088;14.336;2023-03-19T03:06:39;41.50;;;26.90;;
77854;SDS011;67046;50.088;14.336;2023-03-19T03:07:10;45.60;;;26.90;;
77854;SDS011;67046;50.088;14.336;2023-03-19T03:07:42;41.30;;;27.00;;
77854;SDS011;67046;50.088;14.336;2023-03-19T03:08:14;41.20;;;26.70;;
77854;SDS011;67046;50.088;14.336;2023-03-19T03:08:46;38.40;;;25.00;;
77854;SDS011;67046;50.088;14.336;2023-03-19T03:09:17;40.80;;;27.10;;
77854;SDS011;67046;50.088;14.336;2023-03-19T03:09:49;38.80;;;27.70;;
77854;SDS011;67046;50.088;14.336;2023-03-19T03:10:20;40.70;;;26.70;;
77854;SDS011;67046;50.088;14.336;2023-03-19T03:10:52;37.90;;;25.90;;
77854;SDS011;67046;50.088;14.336;2023-03-19T03:11:23;40.80;;;26.70;;
77854;SDS011;67046;50.088;14.336;2023-03-19T03:11:55;37.10;;;26.50;;
77854;SDS011;67046;50.088;14.336;2023-03-19T03:12:27;36.20;;;26.50;;
77854;SDS011;67046;50.088;14.336;2023-03-19T03:12:58;38.90;;;27.00;;
77854;SDS011;67046;50.088;14.336;2023-03-19T03:13:31;43.50;;;27.30;;
77854;SDS011;67046;50.088;14.336;2023-03-19T03:14:02;39.40;;;26.90;;